Time;durP1;ratioP1;P1;durP2;ratioP2;P2;SDS_P1;SDS_P2;PMS_P1;PMS_P2;Temp;Humidity;BMP_temperature;BMP_pressure;BME280_temperature;BME280_humidity;BME280_pressure;Samples;Min_cycle;Max_cycle;Signal;HPM_P1;HPM_P2
2023/07/17 00:00:20;;;;;;;0.00;0.00;;;;;;;14.97;100.00;101401.00;5074792;28;20032;-50
2023/07/17 00:02:45;;;;;;;0.00;0.00;;;;;;;14.92;100.00;101402.66;5075078;28;20387;-49
2023/07/17 00:05:11;;;;;;;0.10;0.10;;;;;;;14.93;100.00;101399.22;5075717;28;20491;-50
2023/07/17 00:07:38;;;;;;;0.00;0.00;;;;;;;14.84;100.00;101409.41;5074625;28;20368;-48
2023/07/17 00:10:06;;;;;;;0.10;0.10;;;;;;;14.87;100.00;101409.47;5075509;28;20368;-50
2023/07/17 00:12:32;;;;;;;0.03;0.03;;;;;;;14.84;100.00;101401.63;5075257;28;20039;-48
2023/07/17 00:14:57;;;;;;;0.03;0.03;;;;;;;14.79;100.00;101407.56;5074729;28;20028;-49
2023/07/17 00:17:22;;;;;;;0.10;0.10;;;;;;;14.84;100.00;101399.03;5075244;28;20111;-46
2023/07/17 00:19:57;;;;;;;0.00;0.00;;;;;;;14.81;100.00;101405.88;5075542;28;20017;-49
2023/07/17 00:22:24;;;;;;;0.10;0.10;;;;;;;14.81;100.00;101402.44;5074106;28;20140;-44
2023/07/17 00:24:51;;;;;;;0.00;0.00;;;;;;;14.75;100.00;101408.34;5075154;28;20483;-50
2023/07/17 00:27:16;;;;;;;0.10;0.10;;;;;;;14.76;100.00;101417.03;5075139;28;20047;-49
2023/07/17 00:29:43;;;;;;;0.10;0.10;;;;;;;14.75;100.00;101410.94;5073931;28;20479;-48
2023/07/17 00:32:12;;;;;;;0.08;0.08;;;;;;;14.71;100.00;101403.09;5074872;28;20101;-49
2023/07/17 00:34:41;;;;;;;0.10;0.10;;;;;;;14.76;100.00;101407.50;5074682;28;20456;-49
2023/07/17 00:37:06;;;;;;;0.00;0.00;;;;;;;14.78;100.00;101403.25;5074368;28;20051;-48
2023/07/17 00:39:32;;;;;;;0.10;0.10;;;;;;;14.79;100.00;101406.69;5074667;28;20372;-49
2023/07/17 00:41:58;;;;;;;0.10;0.10;;;;;;;14.77;100.00;101409.28;5073873;28;20036;-46
2023/07/17 00:44:23;;;;;;;0.00;0.00;;;;;;;14.74;100.00;101414.38;5074776;28;20488;-48
2023/07/17 00:46:50;;;;;;;0.10;0.10;;;;;;;14.74;100.00;101422.16;5074721;28;20539;-49
2023/07/17 00:49:17;;;;;;;0.10;0.10;;;;;;;14.69;100.00;101410.81;5074060;28;20031;-48
2023/07/17 00:51:43;;;;;;;0.00;0.00;;;;;;;14.66;100.00;101410.75;5074379;28;20486;-47
2023/07/17 00:54:10;;;;;;;0.10;0.10;;;;;;;14.62;100.00;101422.75;5074676;28;20012;-49
2023/07/17 00:56:36;;;;;;;0.10;0.10;;;;;;;14.66;100.00;101423.72;5073475;28;20094;-48
2023/07/17 00:59:03;;;;;;;0.10;0.10;;;;;;;14.62;100.00;101421.88;5074636;28;20027;-49
2023/07/17 01:01:29;;;;;;;0.05;0.05;;;;;;;14.59;100.00;101429.56;5074285;28;20095;-49
2023/07/17 01:03:55;;;;;;;0.10;0.10;;;;;;;14.53;100.00;101434.66;5073725;28;20547;-49
2023/07/17 01:06:22;;;;;;;0.10;0.10;;;;;;;14.51;100.00;101432.00;5074430;28;20032;-49
2023/07/17 01:08:48;;;;;;;0.10;0.10;;;;;;;14.46;100.00;101429.31;5074261;28;20380;-50
2023/07/17 01:11:14;;;;;;;0.00;0.00;;;;;;;14.44;100.00;101425.78;5073363;28;20024;-48
2023/07/17 01:13:46;;;;;;;0.10;0.10;;;;;;;14.37;100.00;101434.28;5074126;28;20027;-46
2023/07/17 01:16:13;;;;;;;0.10;0.10;;;;;;;14.34;100.00;101434.19;5074317;28;20039;-49
2023/07/17 01:18:38;;;;;;;0.10;0.10;;;;;;;14.35;100.00;101430.78;5073258;28;20032;-48
2023/07/17 01:21:07;;;;;;;0.10;0.10;;;;;;;14.33;100.00;101433.34;5074064;28;20025;-50
2023/07/17 01:23:33;;;;;;;0.10;0.10;;;;;;;14.31;100.00;101434.13;5073660;28;20051;-50
2023/07/17 01:25:58;;;;;;;0.00;0.00;;;;;;;14.29;100.00;101430.63;5073109;28;20445;-48
2023/07/17 01:28:24;;;;;;;0.10;0.10;;;;;;;14.31;100.00;101439.31;5073829;28;20460;-48
2023/07/17 01:30:49;;;;;;;0.10;0.10;;;;;;;14.27;100.00;101437.50;5074049;28;20388;-49
2023/07/17 01:33:15;;;;;;;0.10;0.10;;;;;;;14.24;100.00;101437.41;5073295;28;20020;-50
2023/07/17 01:35:40;;;;;;;0.10;0.10;;;;;;;14.24;100.00;101442.59;5073547;28;20047;-47
2023/07/17 01:38:07;;;;;;;0.10;0.10;;;;;;;14.20;100.00;101451.16;5073825;28;20029;-48
2023/07/17 01:40:33;;;;;;;0.00;0.00;;;;;;;14.16;100.00;101448.50;5072722;28;20016;-48
2023/07/17 01:42:58;;;;;;;0.10;0.10;;;;;;;14.15;100.00;101448.44;5072866;28;20361;-50
2023/07/17 01:45:23;;;;;;;0.00;0.00;;;;;;;14.12;100.00;101449.22;5072584;28;20384;-50
2023/07/17 01:47:49;;;;;;;0.10;0.10;;;;;;;14.07;100.00;101447.38;5073573;28;20025;-49
2023/07/17 01:50:15;;;;;;;0.10;0.10;;;;;;;14.04;100.00;101439.53;5073477;28;20470;-49
2023/07/17 01:52:40;;;;;;;0.10;0.10;;;;;;;14.04;100.00;101434.34;5072503;28;20034;-50
2023/07/17 01:55:06;;;;;;;0.10;0.10;;;;;;;14.02;100.00;101438.59;5073372;28;20028;-47
2023/07/17 01:57:31;;;;;;;0.10;0.10;;;;;;;14.00;100.00;101443.75;5073243;28;20042;-48
2023/07/17 01:59:56;;;;;;;0.00;0.00;;;;;;;13.94;100.00;101433.25;5072689;28;20051;-49
2023/07/17 02:02:21;;;;;;;0.10;0.10;;;;;;;13.92;100.00;101440.97;5073291;28;20496;-49
2023/07/17 02:04:47;;;;;;;0.10;0.10;;;;;;;13.91;100.00;101435.75;5072888;28;20163;-47
2023/07/17 02:07:12;;;;;;;0.10;0.10;;;;;;;13.89;100.00;101445.19;5072387;28;20469;-46
2023/07/17 02:09:38;;;;;;;0.10;0.10;;;;;;;13.86;100.00;101434.78;5072807;28;20062;-49
2023/07/17 02:12:04;;;;;;;0.10;0.10;;;;;;;13.86;100.00;101446.00;5073119;28;20372;-49
2023/07/17 02:14:29;;;;;;;0.00;0.00;;;;;;;13.81;100.00;101440.72;5072161;28;20021;-50
2023/07/17 02:16:55;;;;;;;0.10;0.10;;;;;;;13.80;100.00;101438.97;5073164;28;20020;-50
2023/07/17 02:19:20;;;;;;;0.10;0.10;;;;;;;13.78;100.00;101435.44;5073081;28;20420;-49
2023/07/17 02:21:46;;;;;;;0.10;0.10;;;;;;;13.77;100.00;101444.03;5071992;28;20035;-50
2023/07/17 02:24:11;;;;;;;0.00;0.00;;;;;;;13.74;100.00;101446.56;5073001;28;20031;-50
2023/07/17 02:26:36;;;;;;;0.10;0.10;;;;;;;13.74;100.00;101445.69;5072967;28;20032;-49
2023/07/17 02:29:02;;;;;;;0.10;0.10;;;;;;;13.71;100.00;101451.69;5072260;28;20019;-49
2023/07/17 02:31:28;;;;;;;0.10;0.10;;;;;;;13.69;100.00;101449.88;5072665;28;20091;-49
2023/07/17 02:33:55;;;;;;;0.10;0.10;;;;;;;13.68;100.00;101448.97;5072899;28;20500;-48
2023/07/17 02:36:20;;;;;;;0.10;0.10;;;;;;;13.61;100.00;101449.69;5072071;28;20029;-50
2023/07/17 02:38:46;;;;;;;0.10;0.10;;;;;;;13.57;100.00;101453.00;5072655;28;20055;-50
2023/07/17 02:41:15;;;;;;;0.10;0.10;;;;;;;13.53;100.00;101452.06;5072831;28;20036;-49
2023/07/17 02:43:40;;;;;;;0.10;0.10;;;;;;;13.54;100.00;101458.97;5071777;28;20032;-50
2023/07/17 02:46:05;;;;;;;0.10;0.10;;;;;;;13.53;100.00;101456.34;5072932;28;20484;-51
2023/07/17 02:48:31;;;;;;;0.10;0.10;;;;;;;13.52;100.00;101459.75;5072281;28;20059;-48
2023/07/17 02:50:56;;;;;;;0.10;0.10;;;;;;;13.48;100.00;101464.88;5072072;28;20479;-48
2023/07/17 02:53:21;;;;;;;0.10;0.10;;;;;;;13.49;100.00;101465.72;5072425;28;20028;-49
2023/07/17 02:55:47;;;;;;;0.10;0.10;;;;;;;13.45;100.00;101461.31;5072052;28;20056;-51
2023/07/17 02:58:16;;;;;;;0.10;0.10;;;;;;;13.44;100.00;101467.31;5072836;28;20060;-50
2023/07/17 03:00:42;;;;;;;0.10;0.10;;;;;;;13.40;100.00;101461.19;5072526;28;20064;-48
2023/07/17 03:03:07;;;;;;;0.10;0.10;;;;;;;13.42;100.00;101464.69;5071900;28;20388;-47
2023/07/17 03:05:35;;;;;;;0.10;0.10;;;;;;;13.40;100.00;101468.97;5072348;28;20099;-49
2023/07/17 03:08:00;;;;;;;0.20;0.20;;;;;;;13.39;100.00;101474.06;5072599;28;20473;-48
2023/07/17 03:10:26;;;;;;;0.10;0.10;;;;;;;13.36;100.00;101471.38;5071718;28;20111;-48
2023/07/17 03:12:51;;;;;;;0.20;0.20;;;;;;;13.35;100.00;101475.69;5072759;28;20025;-47
2023/07/17 03:15:16;;;;;;;0.10;0.10;;;;;;;13.30;100.00;101480.72;5072636;28;20124;-48
2023/07/17 03:17:42;;;;;;;0.10;0.10;;;;;;;13.29;100.00;101483.28;5071375;28;20064;-47
2023/07/17 03:20:09;;;;;;;0.10;0.10;;;;;;;13.28;100.00;101481.53;5072475;28;20021;-48
2023/07/17 03:22:34;;;;;;;0.10;0.10;;;;;;;13.26;100.00;101488.34;5071990;28;20037;-49
2023/07/17 03:25:00;;;;;;;0.10;0.10;;;;;;;13.21;100.00;101479.56;5071830;28;20440;-48
2023/07/17 03:27:25;;;;;;;0.10;0.10;;;;;;;13.23;100.00;101480.50;5072203;28;20027;-47
2023/07/17 03:29:50;;;;;;;0.10;0.10;;;;;;;13.21;100.00;101482.16;5072561;28;20031;-47
2023/07/17 03:32:16;;;;;;;0.08;0.08;;;;;;;13.20;100.00;101488.19;5071700;28;20028;-45
2023/07/17 03:34:41;;;;;;;0.10;0.10;;;;;;;13.16;100.00;101477.75;5072091;28;20472;-46
2023/07/17 03:37:06;;;;;;;0.10;0.10;;;;;;;13.15;100.00;101488.91;5072291;28;20055;-47
2023/07/17 03:39:32;;;;;;;0.10;0.10;;;;;;;13.14;100.00;101488.88;5071314;28;20048;-49
2023/07/17 03:41:57;;;;;;;0.13;0.13;;;;;;;13.05;100.00;101484.31;5072075;28;20056;-46
2023/07/17 03:44:22;;;;;;;0.10;0.10;;;;;;;13.09;100.00;101487.88;5072192;28;20090;-45
2023/07/17 03:46:48;;;;;;;0.10;0.10;;;;;;;13.02;100.00;101482.50;5071585;28;20107;-49
2023/07/17 03:49:13;;;;;;;0.10;0.10;;;;;;;13.03;100.00;101480.81;5072384;28;20392;-44
2023/07/17 03:51:39;;;;;;;0.10;0.10;;;;;;;12.98;100.00;101482.38;5071800;28;20043;-45
2023/07/17 03:54:04;;;;;;;0.10;0.10;;;;;;;12.96;100.00;101484.03;5071582;28;20048;-48
2023/07/17 03:56:29;;;;;;;0.10;0.10;;;;;;;12.99;100.00;101489.31;5071953;28;20078;-45
2023/07/17 03:58:55;;;;;;;0.10;0.10;;;;;;;12.98;100.00;101482.38;5071516;28;20032;-45
2023/07/17 04:01:20;;;;;;;0.10;0.10;;;;;;;12.99;100.00;101486.72;5072375;28;20361;-47
2023/07/17 04:03:45;;;;;;;0.10;0.10;;;;;;;12.98;100.00;101493.59;5071942;28;20086;-48
2023/07/17 04:06:11;;;;;;;0.10;0.10;;;;;;;12.98;100.00;101497.91;5072710;28;20104;-47
2023/07/17 04:08:36;;;;;;;0.10;0.10;;;;;;;12.99;100.00;101500.53;5075120;28;20353;-44
2023/07/17 04:11:02;;;;;;;0.10;0.10;;;;;;;12.95;100.00;101505.56;5075587;28;20040;-46
2023/07/17 04:13:27;;;;;;;0.10;0.10;;;;;;;12.91;100.00;101498.53;5074420;28;20024;-44
2023/07/17 04:15:53;;;;;;;0.10;0.10;;;;;;;12.91;100.00;101503.72;5075446;28;20020;-49
2023/07/17 04:18:18;;;;;;;0.03;0.03;;;;;;;12.91;100.00;101506.31;5075437;28;20111;-44
2023/07/17 04:20:44;;;;;;;0.10;0.10;;;;;;;12.94;100.00;101501.25;5074275;28;20031;-44
2023/07/17 04:23:10;;;;;;;0.10;0.10;;;;;;;12.94;100.00;101509.88;5075385;28;20029;-46
2023/07/17 04:25:41;;;;;;;0.10;0.10;;;;;;;12.91;100.00;101511.47;5075054;28;20017;-44
2023/07/17 04:28:07;;;;;;;0.10;0.10;;;;;;;12.94;100.00;101509.00;5074318;28;20483;-44
2023/07/17 04:30:34;;;;;;;0.10;0.10;;;;;;;12.96;100.00;101510.81;5074799;28;20092;-44
2023/07/17 04:33:00;;;;;;;0.13;0.13;;;;;;;12.97;100.00;101516.84;5075054;28;20385;-47
2023/07/17 04:35:25;;;;;;;0.10;0.10;;;;;;;12.97;100.00;101517.72;5073960;28;20062;-46
2023/07/17 04:37:54;;;;;;;0.10;0.10;;;;;;;13.00;100.00;101522.09;5075173;28;20064;-48
2023/07/17 04:40:19;;;;;;;0.10;0.10;;;;;;;13.00;100.00;101525.59;5075215;28;20016;-45
2023/07/17 04:42:44;;;;;;;0.10;0.10;;;;;;;13.05;100.00;101530.88;5073648;28;20389;-44
2023/07/17 04:45:11;;;;;;;0.10;0.10;;;;;;;13.07;100.00;101538.72;5074963;28;20036;-48
2023/07/17 04:47:36;;;;;;;0.10;0.10;;;;;;;13.07;100.00;101537.00;5074616;28;20019;-45
2023/07/17 04:50:02;;;;;;;0.10;0.10;;;;;;;13.09;100.00;101537.94;5073874;28;20430;-48
2023/07/17 04:52:27;;;;;;;0.10;0.10;;;;;;;13.10;100.00;101539.66;5074384;28;20025;-44
2023/07/17 04:54:53;;;;;;;0.10;0.10;;;;;;;13.12;100.00;101535.44;5074835;28;20491;-47
2023/07/17 04:57:18;;;;;;;0.10;0.10;;;;;;;13.17;100.00;101539.03;5073892;28;20024;-45
2023/07/17 04:59:44;;;;;;;0.20;0.10;;;;;;;13.20;100.00;101539.97;5074240;28;20024;-44
2023/07/17 05:02:09;;;;;;;0.10;0.10;;;;;;;13.22;100.00;101546.06;5074265;28;20028;-45
2023/07/17 05:04:34;;;;;;;0.20;0.20;;;;;;;13.26;100.00;101546.19;5073679;28;20021;-50
2023/07/17 05:07:00;;;;;;;0.10;0.10;;;;;;;13.28;100.00;101549.69;5074746;28;20044;-45
2023/07/17 05:09:25;;;;;;;0.10;0.10;;;;;;;13.34;100.00;101549.00;5073308;28;20024;-44
2023/07/17 05:11:50;;;;;;;0.10;0.10;;;;;;;13.36;100.00;101547.34;5074386;28;20178;-44
2023/07/17 05:14:16;;;;;;;0.10;0.10;;;;;;;13.43;100.00;101545.84;5074215;28;20048;-44
2023/07/17 05:16:41;;;;;;;0.10;0.10;;;;;;;13.48;100.00;101557.22;5073139;28;20526;-44
2023/07/17 05:19:06;;;;;;;0.10;0.10;;;;;;;13.52;100.00;101553.00;5074232;28;20226;-48
2023/07/17 05:21:32;;;;;;;0.10;0.10;;;;;;;13.54;100.00;101562.56;5074033;28;20019;-45
2023/07/17 05:23:58;;;;;;;0.10;0.10;;;;;;;13.59;100.00;101554.94;5073527;28;20024;-49
2023/07/17 05:26:26;;;;;;;0.10;0.10;;;;;;;13.65;100.00;101557.72;5073840;28;20383;-45
2023/07/17 05:28:51;;;;;;;0.10;0.10;;;;;;;13.71;100.00;101557.00;5073889;28;20082;-44
2023/07/17 05:31:17;;;;;;;0.10;0.10;;;;;;;13.74;100.00;101563.13;5073133;28;20048;-48
2023/07/17 05:33:42;;;;;;;0.10;0.10;;;;;;;13.80;100.00;101563.31;5072744;28;20089;-50
2023/07/17 05:36:08;;;;;;;0.10;0.10;;;;;;;13.88;100.00;101567.81;5074074;28;20020;-45
2023/07/17 05:38:33;;;;;;;0.10;0.10;;;;;;;13.94;100.00;101579.25;5072796;28;20064;-45
2023/07/17 05:41:02;;;;;;;0.10;0.10;;;;;;;13.97;100.00;101578.47;5073792;28;20515;-46
2023/07/17 05:43:30;;;;;;;0.10;0.10;;;;;;;14.03;100.00;101577.72;5073389;28;20040;-46
2023/07/17 05:45:56;;;;;;;0.10;0.10;;;;;;;14.05;100.00;101582.13;5072932;28;20021;-46
2023/07/17 05:48:21;;;;;;;0.10;0.10;;;;;;;14.12;100.00;101584.03;5073493;28;20028;-48
2023/07/17 05:50:46;;;;;;;0.10;0.10;;;;;;;14.18;100.00;101579.84;5073150;28;20031;-45
2023/07/17 05:53:12;;;;;;;0.10;0.10;;;;;;;14.24;100.00;101587.78;5072937;28;20028;-45
2023/07/17 05:55:37;;;;;;;0.10;0.10;;;;;;;14.29;100.00;101584.50;5073228;28;20071;-49
2023/07/17 05:58:02;;;;;;;0.10;0.10;;;;;;;14.32;100.00;101587.16;5073573;28;20035;-45
2023/07/17 06:00:28;;;;;;;0.10;0.10;;;;;;;14.40;100.00;101586.50;5072373;28;20059;-47
2023/07/17 06:02:54;;;;;;;0.10;0.10;;;;;;;14.45;100.00;101588.34;5073283;28;20032;-50
2023/07/17 06:05:19;;;;;;;0.10;0.10;;;;;;;14.54;100.00;101597.19;5073541;28;20430;-45
2023/07/17 06:07:44;;;;;;;0.10;0.10;;;;;;;14.61;100.00;101591.34;5072422;28;20075;-48
2023/07/17 06:10:12;;;;;;;0.13;0.10;;;;;;;14.67;100.00;101588.94;5073412;28;20029;-45
2023/07/17 06:12:38;;;;;;;0.00;0.00;;;;;;;14.75;100.00;101595.16;5072207;28;20058;-46
2023/07/17 06:15:04;;;;;;;0.10;0.10;;;;;;;14.78;100.00;101602.16;5073212;28;20021;-44
2023/07/17 06:17:29;;;;;;;0.10;0.10;;;;;;;14.87;100.00;101593.72;5072735;28;20103;-44
2023/07/17 06:19:54;;;;;;;0.10;0.10;;;;;;;14.90;100.00;101597.28;5072228;28;20497;-50
2023/07/17 06:22:20;;;;;;;0.10;0.10;;;;;;;14.94;100.00;101603.41;5073279;28;20486;-46
2023/07/17 06:24:45;;;;;;;0.10;0.10;;;;;;;14.99;100.00;101607.00;5072965;28;20032;-50
2023/07/17 06:27:10;;;;;;;0.10;0.10;;;;;;;15.03;100.00;101614.00;5072220;28;20090;-45
2023/07/17 06:29:36;;;;;;;0.10;0.10;;;;;;;15.12;100.00;101619.41;5072251;28;20023;-45
2023/07/17 06:32:01;;;;;;;0.10;0.10;;;;;;;15.19;100.00;101619.56;5072922;28;20039;-48
2023/07/17 06:34:26;;;;;;;0.10;0.10;;;;;;;15.20;100.00;101627.38;5072068;28;20036;-46
2023/07/17 06:36:51;;;;;;;0.10;0.10;;;;;;;15.28;100.00;101619.75;5073093;28;20055;-49
2023/07/17 06:39:17;;;;;;;0.10;0.10;;;;;;;15.37;100.00;101625.16;5072946;28;20039;-48
2023/07/17 06:41:45;;;;;;;0.10;0.10;;;;;;;15.54;100.00;101628.13;5071517;28;20106;-49
2023/07/17 06:44:10;;;;;;;0.10;0.10;;;;;;;15.63;100.00;101617.06;5072445;28;20090;-45
2023/07/17 06:46:36;;;;;;;0.10;0.10;;;;;;;15.78;100.00;101637.31;5072619;28;20020;-49
2023/07/17 06:49:01;;;;;;;0.10;0.10;;;;;;;15.84;100.00;101639.16;5071911;28;20048;-46
2023/07/17 06:51:26;;;;;;;0.10;0.10;;;;;;;15.91;100.00;101633.25;5072468;28;20036;-46
2023/07/17 06:53:53;;;;;;;0.00;0.00;;;;;;;15.77;98.90;101639.00;5072894;28;20021;-47
2023/07/17 06:56:18;;;;;;;0.00;0.00;;;;;;;15.84;100.00;101636.56;5071986;28;20032;-46
2023/07/17 06:58:43;;;;;;;0.10;0.10;;;;;;;15.94;100.00;101643.72;5072560;28;20031;-48
2023/07/17 07:01:11;;;;;;;0.10;0.10;;;;;;;15.92;98.66;101648.00;5072646;28;20025;-45
2023/07/17 07:03:36;;;;;;;0.10;0.10;;;;;;;15.90;99.44;101641.91;5071653;28;20036;-48
2023/07/17 07:06:04;;;;;;;0.00;0.00;;;;;;;16.03;98.79;101649.09;5072833;28;20024;-50
2023/07/17 07:08:30;;;;;;;0.10;0.10;;;;;;;16.31;97.86;101654.84;5072331;28;20511;-50
2023/07/17 07:10:57;;;;;;;0.10;0.10;;;;;;;16.41;96.89;101656.75;5071753;28;20464;-46
2023/07/17 07:13:23;;;;;;;0.10;0.10;;;;;;;16.50;95.68;101655.16;5072557;28;20399;-47
2023/07/17 07:15:53;;;;;;;0.10;0.10;;;;;;;16.60;96.13;101662.28;5072087;28;20275;-44
2023/07/17 07:18:19;;;;;;;0.10;0.10;;;;;;;16.66;95.01;101661.53;5072737;28;20023;-45
2023/07/17 07:20:45;;;;;;;0.00;0.00;;;;;;;16.83;95.81;101664.44;5072172;28;20508;-45
2023/07/17 07:23:11;;;;;;;0.10;0.10;;;;;;;16.91;93.75;101666.34;5071699;28;20029;-45
2023/07/17 07:25:36;;;;;;;0.00;0.00;;;;;;;16.83;92.87;101667.03;5072186;28;20021;-46
2023/07/17 07:28:02;;;;;;;0.00;0.00;;;;;;;16.96;92.48;101671.63;5072355;28;20476;-46
2023/07/17 07:30:28;;;;;;;0.10;0.10;;;;;;;17.10;92.24;101674.44;5071252;28;20025;-45
2023/07/17 07:32:53;;;;;;;0.00;0.00;;;;;;;17.30;92.02;101679.97;5072583;28;20116;-51
2023/07/17 07:35:19;;;;;;;0.10;0.10;;;;;;;17.18;89.98;101687.59;5072596;28;20095;-47
2023/07/17 07:37:44;;;;;;;0.10;0.10;;;;;;;17.08;89.51;101679.63;5071419;28;20059;-47
2023/07/17 07:40:12;;;;;;;0.10;0.10;;;;;;;17.00;88.62;101676.00;5072539;28;20028;-48
2023/07/17 07:42:38;;;;;;;0.10;0.10;;;;;;;17.24;90.60;101677.28;5075605;28;20051;-47
2023/07/17 07:45:04;;;;;;;0.00;0.00;;;;;;;17.52;90.81;101683.78;5075244;28;20035;-50
2023/07/17 07:47:30;;;;;;;0.10;0.10;;;;;;;17.62;88.03;101679.53;5075883;28;20020;-47
2023/07/17 07:49:55;;;;;;;0.00;0.00;;;;;;;17.67;86.60;101682.22;5076243;28;20028;-46
2023/07/17 07:52:20;;;;;;;0.00;0.00;;;;;;;17.60;84.28;101681.28;5075267;28;20037;-46
2023/07/17 07:54:46;;;;;;;0.00;0.00;;;;;;;17.64;84.29;101680.44;5075597;28;20020;-44
2023/07/17 07:57:11;;;;;;;0.10;0.10;;;;;;;17.69;84.49;101691.81;5075771;28;20033;-45
2023/07/17 07:59:37;;;;;;;0.10;0.10;;;;;;;17.69;84.12;101686.59;5074635;28;20138;-47
2023/07/17 08:02:02;;;;;;;0.00;0.00;;;;;;;17.53;82.46;101689.84;5075809;28;20036;-46
2023/07/17 08:04:28;;;;;;;0.00;0.00;;;;;;;17.72;83.90;101691.84;5075610;28;20472;-50
2023/07/17 08:06:55;;;;;;;0.10;0.10;;;;;;;17.76;82.88;101696.25;5074943;28;20095;-51
2023/07/17 08:09:20;;;;;;;0.00;0.00;;;;;;;17.94;82.69;101689.56;5075713;28;20021;-46
2023/07/17 08:11:46;;;;;;;0.00;0.00;;;;;;;18.15;81.68;101701.13;5075298;28;20032;-45
2023/07/17 08:14:11;;;;;;;0.10;0.10;;;;;;;18.21;81.30;101703.81;5074631;28;20039;-49
2023/07/17 08:16:36;;;;;;;0.05;0.05;;;;;;;18.00;80.70;101700.06;5075392;28;20020;-46
2023/07/17 08:19:02;;;;;;;0.00;0.00;;;;;;;17.89;81.00;101704.25;5075609;28;20025;-48
2023/07/17 08:21:27;;;;;;;0.00;0.00;;;;;;;17.85;82.07;101705.06;5074398;28;20021;-47
2023/07/17 08:23:52;;;;;;;0.00;0.00;;;;;;;17.78;82.00;101701.50;5075308;28;20476;-50
2023/07/17 08:26:18;;;;;;;0.00;0.00;;;;;;;17.84;83.12;101701.56;5074572;28;20028;-51
2023/07/17 08:28:43;;;;;;;0.08;0.08;;;;;;;17.90;79.97;101700.78;5074861;28;20047;-49
2023/07/17 08:31:08;;;;;;;0.10;0.10;;;;;;;18.37;81.52;101703.13;5075220;28;20029;-45
2023/07/17 08:33:34;;;;;;;0.03;0.03;;;;;;;18.48;78.65;101716.28;5074258;28;20024;-45
2023/07/17 08:35:59;;;;;;;0.00;0.00;;;;;;;18.26;74.00;101709.94;5075275;28;20414;-46
2023/07/17 08:38:24;;;;;;;0.00;0.00;;;;;;;18.18;74.66;101707.25;5074941;28;20024;-47
2023/07/17 08:40:53;;;;;;;0.10;0.10;;;;;;;18.37;76.69;101713.56;5074096;28;20488;-47
2023/07/17 08:43:19;;;;;;;0.00;0.00;;;;;;;18.44;73.50;101724.94;5074871;28;20029;-46
2023/07/17 08:45:46;;;;;;;0.00;0.00;;;;;;;18.66;73.90;101718.19;5074820;28;20059;-47
2023/07/17 08:48:14;;;;;;;0.10;0.10;;;;;;;18.88;72.68;101718.41;5074280;28;20024;-46
2023/07/17 08:50:41;;;;;;;0.00;0.00;;;;;;;19.14;71.46;101712.56;5074622;28;20025;-44
2023/07/17 08:53:07;;;;;;;0.00;0.00;;;;;;;19.37;69.83;101721.44;5074453;28;20392;-46
2023/07/17 08:55:33;;;;;;;0.00;0.00;;;;;;;19.60;70.17;101712.88;5073723;28;20082;-47
2023/07/17 08:58:03;;;;;;;0.00;0.00;;;;;;;19.38;68.52;101720.59;5074672;28;20411;-49
2023/07/17 09:00:29;;;;;;;0.00;0.00;;;;;;;19.28;69.86;101721.38;5074778;28;20025;-46
2023/07/17 09:02:55;;;;;;;0.10;0.10;;;;;;;19.31;70.05;101725.75;5073897;28;20025;-47
2023/07/17 09:05:20;;;;;;;0.00;0.00;;;;;;;19.31;70.97;101721.41;5074666;28;20032;-46
2023/07/17 09:07:47;;;;;;;0.00;0.00;;;;;;;19.03;70.35;101726.41;5074322;28;20419;-47
2023/07/17 09:10:21;;;;;;;0.10;0.10;;;;;;;19.14;70.60;101723.88;5073645;28;20107;-46
2023/07/17 09:12:50;;;;;;;0.00;0.00;;;;;;;19.42;68.47;101724.09;5074063;28;20487;-51
2023/07/17 09:15:16;;;;;;;0.00;0.00;;;;;;;19.90;68.14;101716.56;5074484;28;20027;-48
2023/07/17 09:17:41;;;;;;;0.00;0.00;;;;;;;20.02;63.82;101715.75;5073326;28;20380;-50
2023/07/17 09:20:10;;;;;;;0.00;0.00;;;;;;;20.25;63.28;101723.69;5074363;28;20082;-49
2023/07/17 09:22:37;;;;;;;0.00;0.00;;;;;;;20.16;64.51;101726.28;5073116;28;20032;-45
2023/07/17 09:25:02;;;;;;;0.00;0.00;;;;;;;19.91;62.75;101726.16;5074355;28;20036;-47
2023/07/17 09:27:28;;;;;;;0.00;0.00;;;;;;;19.77;63.18;101725.16;5074152;28;20028;-49
2023/07/17 09:29:53;;;;;;;0.00;0.00;;;;;;;19.84;64.83;101722.63;5073243;28;20024;-48
2023/07/17 09:32:19;;;;;;;0.00;0.00;;;;;;;19.94;61.04;101728.78;5074167;28;20020;-51
2023/07/17 09:35:11;;;;;;;0.00;0.00;;;;;;;20.14;63.29;101728.88;5073709;28;20024;-48
2023/07/17 09:37:37;;;;;;;0.10;0.10;;;;;;;20.51;62.16;101728.13;5070887;28;20033;-50
2023/07/17 09:40:07;;;;;;;0.00;0.00;;;;;;;20.61;59.21;101727.25;5073934;28;20082;-45
2023/07/17 09:42:36;;;;;;;0.00;0.00;;;;;;;20.72;59.16;101714.22;5073455;28;20139;-44
2023/07/17 09:45:03;;;;;;;0.00;0.00;;;;;;;20.71;56.72;101726.44;5073017;28;20024;-50
2023/07/17 09:47:30;;;;;;;0.00;0.00;;;;;;;20.58;57.58;101729.00;5073463;28;20468;-49
2023/07/17 09:49:56;;;;;;;0.00;0.00;;;;;;;20.51;58.35;101728.97;5073654;28;20472;-45
2023/07/17 09:52:22;;;;;;;0.00;0.00;;;;;;;20.53;58.61;101731.63;5072944;28;20035;-44
2023/07/17 09:54:53;;;;;;;0.00;0.00;;;;;;;20.23;57.02;101725.41;5073525;28;20380;-49
2023/07/17 09:57:29;;;;;;;0.00;0.00;;;;;;;19.98;59.40;101733.16;5073726;28;20038;-50
2023/07/17 10:00:01;;;;;;;0.00;0.00;;;;;;;19.82;59.63;101736.56;5072761;28;20039;-46
2023/07/17 10:02:30;;;;;;;0.00;0.00;;;;;;;19.80;60.19;101739.13;5072807;28;20024;-48
2023/07/17 10:04:59;;;;;;;0.00;0.00;;;;;;;20.35;60.82;101735.94;5072173;28;20032;-49
2023/07/17 10:07:24;;;;;;;0.00;0.00;;;;;;;20.62;56.82;101733.38;5073173;28;20021;-49
2023/07/17 10:09:50;;;;;;;0.00;0.00;;;;;;;20.46;57.35;101732.47;5073515;28;20024;-48
2023/07/17 10:12:17;;;;;;;0.00;0.00;;;;;;;20.74;57.50;101727.34;5072578;28;20037;-44
2023/07/17 10:14:44;;;;;;;0.00;0.00;;;;;;;21.03;54.54;101725.59;5073021;28;20104;-49
2023/07/17 10:17:31;;;;;;;0.00;0.00;;;;;;;21.26;53.69;101732.56;5073183;28;20314;-47
2023/07/17 10:19:58;;;;;;;;;;;;;;;21.30;51.14;101731.69;5072934;28;20031;-50
2023/07/17 10:22:30;;;;;;;0.05;0.05;;;;;;;21.64;49.81;101731.69;5072681;28;20284;-44
2023/07/17 10:24:56;;;;;;;0.08;0.08;;;;;;;22.28;48.29;101726.19;5073074;28;20024;-50
2023/07/17 10:27:43;;;;;;;0.10;0.10;;;;;;;22.60;49.43;101728.66;5072138;28;20541;-45
2023/07/17 10:30:34;;;;;;;0.00;0.00;;;;;;;23.43;45.74;101731.53;5073193;28;20075;-47
2023/07/17 10:33:13;;;;;;;0.00;0.00;;;;;;;23.66;44.20;101734.78;5072275;28;20441;-50
2023/07/17 10:35:50;;;;;;;0.00;0.00;;;;;;;23.77;43.75;101737.31;5072514;28;20491;-46
2023/07/17 10:38:18;;;;;;;0.00;0.00;;;;;;;23.75;43.28;101733.81;5072946;28;20078;-49
2023/07/17 10:40:43;;;;;;;0.00;0.00;;;;;;;23.92;43.21;101738.03;5071790;28;20099;-46
2023/07/17 10:43:14;;;;;;;0.00;0.00;;;;;;;24.28;42.71;101734.06;5072819;28;20107;-45
2023/07/17 10:45:39;;;;;;;0.00;0.00;;;;;;;24.40;40.67;101740.06;5072704;28;20051;-45
2023/07/17 10:48:08;;;;;;;0.00;0.00;;;;;;;24.24;40.47;101748.16;5072064;28;20052;-47
2023/07/17 10:50:34;;;;;;;0.00;0.00;;;;;;;24.29;40.02;101740.22;5072389;28;20032;-46
2023/07/17 10:53:09;;;;;;;0.00;0.00;;;;;;;24.33;41.21;101741.91;5072906;28;20024;-47
2023/07/17 10:55:34;;;;;;;0.00;0.00;;;;;;;23.77;41.61;101745.19;5071671;28;20027;-46
2023/07/17 10:58:01;;;;;;;0.00;0.00;;;;;;;22.81;42.37;101737.28;5072950;28;20025;-48
2023/07/17 11:00:27;;;;;;;0.00;0.00;;;;;;;22.75;43.72;101727.69;5072516;28;20045;-47
2023/07/17 11:02:56;;;;;;;0.00;0.00;;;;;;;23.90;43.54;101723.97;5071771;28;20032;-48
2023/07/17 11:05:22;;;;;;;0.00;0.00;;;;;;;24.79;40.17;101724.56;5072929;28;20024;-46
2023/07/17 11:07:47;;;;;;;0.00;0.00;;;;;;;24.79;38.84;101727.19;5072490;28;20025;-48
2023/07/17 11:10:13;;;;;;;0.00;0.00;;;;;;;24.98;39.84;101725.13;5071945;28;20024;-44
2023/07/17 11:12:42;;;;;;;0.00;0.00;;;;;;;25.23;38.44;101728.25;5072377;28;20055;-45
2023/07/17 11:15:15;;;;;;;0.00;0.00;;;;;;;24.87;39.33;101721.81;5073448;28;20165;-50